Time,TemperatureF,DewpointF,PressureIn,WindDirection,WindDirectionDegrees,WindSpeedMPH,WindSpeedGustMPH,Humidity,HourlyPrecipIn,Conditions,Clouds,dailyrainin,SoftwareType,DateUTC
2013-03-05 00:00:00,46.2,24.9,30.03,West,270,2.5,5.6,43,0.00,,,0.00,VWS V14.01,2013-03-05 05:00:00,
2013-03-05 00:05:00,43.6,23.2,30.03,WNW,292,1.3,4.0,44,0.00,,,0.00,VWS V14.01,2013-03-05 05:05:00,
2013-03-05 00:10:00,42.9,22.5,30.03,WNW,292,2.5,4.0,44,0.00,,,0.00,VWS V14.01,2013-03-05 05:10:00,
2013-03-05 00:15:00,42.5,22.7,30.03,WSW,248,1.3,4.0,45,0.00,,,0.00,VWS V14.01,2013-03-05 05:15:00,
2013-03-05 00:20:00,42.4,23.1,30.03,WSW,248,1.3,3.4,46,0.00,,,0.00,VWS V14.01,2013-03-05 05:20:00,
2013-03-05 00:25:00,41.5,22.8,30.03,NW,315,2.5,3.4,47,0.00,,,0.00,VWS V14.01,2013-03-05 05:25:00,
2013-03-05 00:30:00,40.4,22.8,30.03,SSW,202,2.2,3.4,49,0.00,,,0.00,VWS V14.01,2013-03-05 05:30:00,
2013-03-05 00:35:00,39.1,23.5,30.03,NNW,338,3.8,3.8,53,0.00,,,0.00,VWS V14.01,2013-03-05 05:35:00,
2013-03-05 00:40:00,39.1,23.9,30.03,NNW,338,2.9,3.8,54,0.00,,,0.00,VWS V14.01,2013-03-05 05:40:00,
2013-03-05 00:45:00,39.0,23.7,30.03,WNW,292,3.4,3.8,54,0.00,,,0.00,VWS V14.01,2013-03-05 05:45:00,
2013-03-05 00:50:00,38.8,23.6,30.03,WNW,292,2.2,4.0,54,0.00,,,0.00,VWS V14.01,2013-03-05 05:50:00,
2013-03-05 00:55:00,38.4,23.7,30.03,SSW,202,2.5,4.0,55,0.00,,,0.00,VWS V14.01,2013-03-05 05:55:00,
2013-03-05 01:00:00,38.0,23.3,30.03,NNW,338,1.3,4.3,55,0.00,,,0.00,VWS V14.01,2013-03-05 06:00:00,
2013-03-05 01:05:00,37.9,23.6,30.03,West,270,1.6,6.3,56,0.00,,,0.00,VWS V14.01,2013-03-05 06:05:00,
2013-03-05 01:10:00,38.6,23.8,30.03,WNW,292,2.2,6.3,55,0.00,,,0.00,VWS V14.01,2013-03-05 06:10:00,
2013-03-05 01:15:00,38.4,23.7,30.03,WNW,292,1.3,6.3,55,0.00,,,0.00,VWS V14.01,2013-03-05 06:15:00,
2013-03-05 01:20:00,37.7,23.0,30.03,NNW,338,2.7,6.3,55,0.00,,,0.00,VWS V14.01,2013-03-05 06:20:00,
2013-03-05 01:25:00,37.3,23.1,30.03,WNW,292,2.5,6.3,56,0.00,,,0.00,VWS V14.01,2013-03-05 06:25:00,
2013-03-05 01:30:00,37.2,22.9,30.03,WNW,292,2.5,6.3,56,0.00,,,0.00,VWS V14.01,2013-03-05 06:30:00,
2013-03-05 01:35:00,37.3,23.1,30.03,WNW,292,1.1,2.2,56,0.00,,,0.00,VWS V14.01,2013-03-05 06:35:00,
2013-03-05 01:40:00,36.8,22.6,30.03,South,180,0.0,2.7,56,0.00,,,0.00,VWS V14.01,2013-03-05 06:40:00,
2013-03-05 01:45:00,36.8,23.0,30.03,North,0,0.0,2.7,57,0.00,,,0.00,VWS V14.01,2013-03-05 06:45:00,
2013-03-05 01:50:00,36.4,23.5,30.03,North,0,0.0,0.0,59,0.00,,,0.00,VWS V14.01,2013-03-05 06:50:00,
2013-03-05 01:55:00,35.7,24.0,30.03,NE,45,0.0,2.7,62,0.00,,,0.00,VWS V14.01,2013-03-05 06:55:00,
2013-03-05 02:00:00,35.3,24.8,30.03,NNW,338,3.4,3.6,65,0.00,,,0.00,VWS V14.01,2013-03-05 07:00:00,
2013-03-05 02:05:00,35.2,24.6,30.03,SSE,158,0.0,2.0,65,0.00,,,0.00,VWS V14.01,2013-03-05 07:05:00,
2013-03-05 02:10:00,35.5,24.6,30.03,WNW,292,2.9,3.8,64,0.00,,,0.00,VWS V14.01,2013-03-05 07:10:00,
2013-03-05 02:15:00,35.7,24.8,30.03,WNW,292,2.2,3.8,64,0.00,,,0.00,VWS V14.01,2013-03-05 07:15:00,
2013-03-05 02:20:00,35.9,24.5,30.03,West,270,2.2,3.1,63,0.00,,,0.00,VWS V14.01,2013-03-05 07:20:00,
2013-03-05 02:25:00,36.1,25.1,30.03,SE,135,1.6,3.1,64,0.00,,,0.00,VWS V14.01,2013-03-05 07:25:00,
2013-03-05 02:30:00,36.2,25.3,30.00,NNW,338,0.0,3.1,64,0.00,,,0.00,VWS V14.01,2013-03-05 07:30:00,
2013-03-05 02:35:00,36.4,25.8,30.00,NW,315,2.0,3.1,65,0.00,,,0.00,VWS V14.01,2013-03-05 07:35:00,
2013-03-05 02:40:00,36.6,25.6,30.00,West,270,2.0,3.1,64,0.00,,,0.00,VWS V14.01,2013-03-05 07:40:00,
2013-03-05 02:45:00,37.0,25.6,30.00,WNW,292,2.0,3.1,63,0.00,,,0.00,VWS V14.01,2013-03-05 07:45:00,
2013-03-05 02:50:00,37.2,25.0,30.00,WNW,292,2.5,3.4,61,0.00,,,0.00,VWS V14.01,2013-03-05 07:50:00,
2013-03-05 02:55:00,37.7,24.3,29.97,WNW,292,2.5,3.4,58,0.00,,,0.00,VWS V14.01,2013-03-05 07:55:00,
2013-03-05 03:00:00,38.0,26.2,29.97,WNW,292,1.6,4.0,62,0.00,,,0.00,VWS V14.01,2013-03-05 08:00:00,
2013-03-05 03:05:00,37.7,25.9,29.97,NNW,338,1.1,4.0,62,0.00,,,0.00,VWS V14.01,2013-03-05 08:05:00,
2013-03-05 03:10:00,37.7,26.2,29.97,WNW,292,0.0,4.0,63,0.00,,,0.00,VWS V14.01,2013-03-05 08:10:00,
2013-03-05 03:15:00,37.7,26.2,29.97,NNW,338,0.0,4.0,63,0.00,,,0.00,VWS V14.01,2013-03-05 08:15:00,
2013-03-05 03:20:00,37.7,25.5,29.97,NNW,338,0.0,0.0,61,0.00,,,0.00,VWS V14.01,2013-03-05 08:20:00,
2013-03-05 03:25:00,37.9,26.0,29.97,NNE,22,0.0,0.0,62,0.00,,,0.00,VWS V14.01,2013-03-05 08:25:00,
2013-03-05 03:30:00,37.9,26.0,29.97,East,90,1.3,1.3,62,0.00,,,0.00,VWS V14.01,2013-03-05 08:30:00,
2013-03-05 03:35:00,38.0,26.6,29.97,NW,315,2.9,2.9,63,0.00,,,0.00,VWS V14.01,2013-03-05 08:35:00,
2013-03-05 03:40:00,38.0,26.6,29.97,NNE,22,1.3,3.1,63,0.00,,,0.00,VWS V14.01,2013-03-05 08:40:00,
2013-03-05 03:45:00,38.2,25.6,29.97,WNW,292,2.0,3.1,60,0.00,,,0.00,VWS V14.01,2013-03-05 08:45:00,
2013-03-05 03:50:00,38.4,26.1,29.97,SSW,202,0.0,2.2,61,0.00,,,0.00,VWS V14.01,2013-03-05 08:50:00,
2013-03-05 03:55:00,38.4,26.1,29.94,NNW,338,0.0,2.2,61,0.00,,,0.00,VWS V14.01,2013-03-05 08:55:00,
2013-03-05 04:00:00,38.6,26.3,29.94,NNW,338,0.0,2.2,61,0.00,,,0.00,VWS V14.01,2013-03-05 09:00:00,
2013-03-05 04:05:00,38.6,25.9,29.94,ENE,68,0.0,0.0,60,0.00,,,0.00,VWS V14.01,2013-03-05 09:05:00,
2013-03-05 04:10:00,38.8,26.1,29.94,NW,315,0.0,1.3,60,0.00,,,0.00,VWS V14.01,2013-03-05 09:10:00,
2013-03-05 04:15:00,39.0,26.3,29.94,WSW,248,0.9,2.7,60,0.00,,,0.00,VWS V14.01,2013-03-05 09:15:00,
2013-03-05 04:20:00,39.1,27.2,29.94,NNW,338,2.5,2.7,62,0.00,,,0.00,VWS V14.01,2013-03-05 09:20:00,
2013-03-05 04:25:00,39.1,26.8,29.97,NW,315,2.2,2.7,61,0.00,,,0.00,VWS V14.01,2013-03-05 09:25:00,
2013-03-05 04:30:00,39.1,26.8,29.97,NW,315,2.0,2.7,61,0.00,,,0.00,VWS V14.01,2013-03-05 09:30:00,
2013-03-05 04:35:00,39.1,27.2,29.97,WNW,292,1.6,3.4,62,0.00,,,0.00,VWS V14.01,2013-03-05 09:35:00,
2013-03-05 04:40:00,39.1,26.4,29.97,WNW,292,0.0,3.4,60,0.00,,,0.00,VWS V14.01,2013-03-05 09:40:00,
2013-03-05 04:45:00,39.1,26.8,29.97,SE,135,0.0,3.4,61,0.00,,,0.00,VWS V14.01,2013-03-05 09:45:00,
2013-03-05 04:50:00,39.3,27.0,29.97,WNW,292,2.7,2.9,61,0.00,,,0.00,VWS V14.01,2013-03-05 09:50:00,
2013-03-05 04:55:00,39.5,27.6,29.97,WNW,292,0.0,3.1,62,0.00,,,0.00,VWS V14.01,2013-03-05 09:55:00,
2013-03-05 05:00:00,39.5,26.8,29.97,NW,315,1.6,3.1,60,0.00,,,0.00,VWS V14.01,2013-03-05 10:00:00,
2013-03-05 05:05:00,42.0,30.4,29.97,SSW,202,0.0,3.1,63,0.00,,,0.00,VWS V14.01,2013-03-05 10:05:00,
2013-03-05 05:10:00,43.1,31.8,29.97,SE,135,3.6,3.6,64,0.00,,,0.00,VWS V14.01,2013-03-05 10:10:00,
2013-03-05 05:15:00,47.0,36.3,29.97,SSW,202,2.7,10.3,66,0.00,,,0.00,VWS V14.01,2013-03-05 10:15:00,
2013-03-05 05:20:00,47.2,35.7,29.97,NE,45,2.2,6.5,64,0.00,,,0.00,VWS V14.01,2013-03-05 10:20:00,
2013-03-05 05:25:00,48.0,36.0,29.97,West,270,2.5,6.5,63,0.00,,,0.00,VWS V14.01,2013-03-05 10:25:00,
2013-03-05 05:30:00,47.6,36.8,29.97,NW,315,1.3,6.5,66,0.00,,,0.00,VWS V14.01,2013-03-05 10:30:00,
2013-03-05 05:35:00,47.4,37.8,29.97,NW,315,0.0,2.7,69,0.00,,,0.00,VWS V14.01,2013-03-05 10:35:00,
2013-03-05 05:40:00,46.9,36.9,29.97,NNE,22,0.0,2.7,68,0.00,,,0.00,VWS V14.01,2013-03-05 10:40:00,
2013-03-05 05:45:00,46.3,37.8,29.97,SSW,202,0.0,2.7,72,0.00,,,0.00,VWS V14.01,2013-03-05 10:45:00,
2013-03-05 05:50:00,46.0,39.5,29.97,WSW,248,0.0,0.0,78,0.00,,,0.00,VWS V14.01,2013-03-05 10:50:00,
2013-03-05 05:55:00,45.6,40.4,29.97,WSW,248,1.3,2.0,82,0.00,,,0.00,VWS V14.01,2013-03-05 10:55:00,
2013-03-05 06:00:00,43.6,36.6,29.97,WNW,292,2.7,3.1,76,0.00,,,0.00,VWS V14.01,2013-03-05 11:00:00,
2013-03-05 06:05:00,42.4,35.7,29.97,WNW,292,2.5,2.9,77,0.00,,,0.00,VWS V14.01,2013-03-05 11:05:00,
2013-03-05 06:10:00,42.7,37.3,29.97,ENE,68,0.0,2.9,81,0.00,,,0.00,VWS V14.01,2013-03-05 11:10:00,
2013-03-05 06:15:00,42.9,39.0,29.97,WNW,292,2.5,5.8,86,0.00,,,0.00,VWS V14.01,2013-03-05 11:15:00,
2013-03-05 06:20:00,42.9,39.0,29.97,WNW,292,2.0,2.9,86,0.00,,,0.00,VWS V14.01,2013-03-05 11:20:00,
2013-03-05 06:25:00,42.0,38.4,29.97,North,0,1.3,2.9,87,0.00,,,0.00,VWS V14.01,2013-03-05 11:25:00,
2013-03-05 06:30:00,42.2,39.8,29.97,WNW,292,0.0,2.9,91,0.00,,,0.00,VWS V14.01,2013-03-05 11:30:00,
2013-03-05 06:35:00,42.5,41.8,29.97,NNW,338,0.0,3.1,97,0.00,,,0.00,VWS V14.01,2013-03-05 11:35:00,
2013-03-05 06:40:00,41.3,39.4,29.97,WNW,292,2.5,3.1,93,0.00,,,0.00,VWS V14.01,2013-03-05 11:40:00,
2013-03-05 06:45:00,41.5,40.2,29.97,WNW,292,1.6,3.1,95,0.00,,,0.00,VWS V14.01,2013-03-05 11:45:00,
2013-03-05 06:50:00,41.5,41.2,29.97,WNW,292,1.3,2.5,99,0.00,,,0.00,VWS V14.01,2013-03-05 11:50:00,
2013-03-05 06:55:00,41.5,41.5,29.97,SSE,158,0.0,2.5,100,0.00,,,0.00,VWS V14.01,2013-03-05 11:55:00,
2013-03-05 07:00:00,41.7,41.7,29.97,WNW,292,2.7,2.7,100,0.00,,,0.00,VWS V14.01,2013-03-05 12:00:00,
2013-03-05 07:05:00,40.6,40.6,29.97,NNW,338,3.1,3.4,100,0.00,,,0.00,VWS V14.01,2013-03-05 12:05:00,
2013-03-05 07:10:00,40.8,40.8,29.94,NW,315,2.2,3.8,100,0.00,,,0.00,VWS V14.01,2013-03-05 12:10:00,
2013-03-05 07:15:00,40.9,40.9,29.94,WNW,292,0.0,3.8,100,0.00,,,0.00,VWS V14.01,2013-03-05 12:15:00,
2013-03-05 07:20:00,40.8,40.8,29.94,NW,315,0.9,3.8,100,0.00,,,0.00,VWS V14.01,2013-03-05 12:20:00,
2013-03-05 07:25:00,40.4,40.4,29.97,WNW,292,1.6,3.8,100,0.00,,,0.00,VWS V14.01,2013-03-05 12:25:00,
2013-03-05 07:30:00,40.6,40.6,29.97,South,180,0.0,3.8,100,0.04,,,0.04,VWS V14.01,2013-03-05 12:30:00,
2013-03-05 07:35:00,40.8,40.8,29.97,SW,225,0.0,0.0,100,0.04,,,0.04,VWS V14.01,2013-03-05 12:35:00,
2013-03-05 07:40:00,41.3,41.3,29.97,SW,225,0.0,1.6,100,0.04,,,0.04,VWS V14.01,2013-03-05 12:40:00,
2013-03-05 07:45:00,41.5,41.5,29.97,South,180,1.3,2.2,100,0.04,,,0.04,VWS V14.01,2013-03-05 12:45:00,
2013-03-05 07:50:00,41.7,41.7,29.97,SSW,202,0.0,0.0,100,0.04,,,0.04,VWS V14.01,2013-03-05 12:50:00,
2013-03-05 07:55:00,42.0,42.0,29.97,SSW,202,0.0,2.9,100,0.04,,,0.04,VWS V14.01,2013-03-05 12:55:00,
2013-03-05 08:00:00,42.7,42.7,29.97,South,180,0.0,2.9,100,0.04,,,0.04,VWS V14.01,2013-03-05 13:00:00,
2013-03-05 08:05:00,43.5,43.5,29.97,SSW,202,0.0,2.7,100,0.08,,,0.08,VWS V14.01,2013-03-05 13:05:00,
2013-03-05 08:10:00,43.3,43.3,29.97,SSW,202,0.0,2.7,100,0.08,,,0.08,VWS V14.01,2013-03-05 13:10:00,
2013-03-05 08:15:00,44.2,44.2,29.97,SE,135,1.3,2.7,100,0.08,,,0.08,VWS V14.01,2013-03-05 13:15:00,
2013-03-05 08:20:00,44.3,44.3,29.97,West,270,0.0,0.0,100,0.04,,,0.08,VWS V14.01,2013-03-05 13:20:00,
2013-03-05 08:25:00,44.3,44.3,29.97,SSW,202,0.0,2.5,100,0.04,,,0.08,VWS V14.01,2013-03-05 13:25:00,
2013-03-05 08:30:00,45.1,45.1,29.97,South,180,1.6,2.7,100,0.04,,,0.08,VWS V14.01,2013-03-05 13:30:00,
2013-03-05 08:35:00,45.6,45.6,29.97,ESE,112,0.0,5.8,100,0.04,,,0.08,VWS V14.01,2013-03-05 13:35:00,
2013-03-05 08:40:00,45.6,45.6,29.97,ESE,112,0.9,5.8,100,0.04,,,0.08,VWS V14.01,2013-03-05 13:40:00,
2013-03-05 08:45:00,46.0,46.0,29.97,ESE,112,1.6,5.8,100,0.04,,,0.08,VWS V14.01,2013-03-05 13:45:00,
2013-03-05 08:50:00,46.7,46.7,29.97,SSE,158,1.6,5.8,100,0.04,,,0.08,VWS V14.01,2013-03-05 13:50:00,
2013-03-05 08:55:00,47.0,47.0,29.97,NNW,338,3.1,5.8,100,0.04,,,0.08,VWS V14.01,2013-03-05 13:55:00,
2013-03-05 09:00:00,47.6,47.6,29.94,East,90,0.0,5.8,100,0.04,,,0.08,VWS V14.01,2013-03-05 14:00:00,
2013-03-05 09:05:00,47.6,47.6,29.94,NW,315,2.5,3.6,100,0.00,,,0.08,VWS V14.01,2013-03-05 14:05:00,
2013-03-05 09:10:00,47.6,47.6,29.94,NNW,338,0.0,3.6,100,0.00,,,0.08,VWS V14.01,2013-03-05 14:10:00,
2013-03-05 09:15:00,47.6,47.6,29.94,SSE,158,2.0,3.6,100,0.00,,,0.08,VWS V14.01,2013-03-05 14:15:00,
2013-03-05 09:20:00,48.0,48.0,29.94,NE,45,1.6,3.6,100,0.00,,,0.08,VWS V14.01,2013-03-05 14:20:00,
2013-03-05 09:25:00,48.0,48.0,29.94,SSW,202,2.2,3.6,100,0.00,,,0.08,VWS V14.01,2013-03-05 14:25:00,
2013-03-05 09:30:00,48.0,48.0,29.94,South,180,2.7,3.6,100,0.00,,,0.08,VWS V14.01,2013-03-05 14:30:00,
2013-03-05 09:35:00,48.5,46.8,29.94,NE,45,2.7,4.0,94,0.00,,,0.08,VWS V14.01,2013-03-05 14:35:00,
2013-03-05 09:40:00,48.7,46.5,29.94,WSW,248,0.0,4.0,92,0.00,,,0.08,VWS V14.01,2013-03-05 14:40:00,
2013-03-05 09:45:00,49.4,46.3,29.94,South,180,6.3,6.3,89,0.00,,,0.08,VWS V14.01,2013-03-05 14:45:00,
2013-03-05 09:50:00,49.4,46.0,29.94,SSW,202,3.8,6.9,88,0.00,,,0.08,VWS V14.01,2013-03-05 14:50:00,
2013-03-05 09:55:00,49.8,45.1,29.91,SSE,158,4.9,6.9,84,0.00,,,0.08,VWS V14.01,2013-03-05 14:55:00,
2013-03-05 10:00:00,49.8,45.1,29.91,NNW,338,2.0,7.4,84,0.00,,,0.08,VWS V14.01,2013-03-05 15:00:00,
2013-03-05 10:05:00,49.8,45.1,29.91,NE,45,2.0,2.9,84,0.00,,,0.08,VWS V14.01,2013-03-05 15:05:00,
2013-03-05 10:10:00,49.9,44.7,29.91,NE,45,3.6,7.4,82,0.00,,,0.08,VWS V14.01,2013-03-05 15:10:00,
2013-03-05 10:15:00,50.1,44.8,29.91,North,0,3.6,7.4,82,0.00,,,0.08,VWS V14.01,2013-03-05 15:15:00,
2013-03-05 10:20:00,50.3,45.0,29.91,WSW,248,4.3,6.0,82,0.00,,,0.08,VWS V14.01,2013-03-05 15:20:00,
2013-03-05 10:25:00,50.3,45.0,29.91,SSE,158,0.0,6.0,82,0.00,,,0.08,VWS V14.01,2013-03-05 15:25:00,
2013-03-05 10:30:00,50.5,44.9,29.91,SSW,202,2.2,6.0,81,0.00,,,0.08,VWS V14.01,2013-03-05 15:30:00,
2013-03-05 10:35:00,50.8,44.6,29.91,SE,135,4.9,7.2,79,0.00,,,0.08,VWS V14.01,2013-03-05 15:35:00,
2013-03-05 10:40:00,51.0,43.7,29.91,SSE,158,4.9,7.2,76,0.00,,,0.08,VWS V14.01,2013-03-05 15:40:00,
2013-03-05 10:45:00,51.2,43.5,29.91,East,90,4.3,7.4,75,0.00,,,0.08,VWS V14.01,2013-03-05 15:45:00,
2013-03-05 10:50:00,51.4,43.7,29.91,WSW,248,1.1,7.4,75,0.00,,,0.08,VWS V14.01,2013-03-05 15:50:00,
2013-03-05 10:55:00,51.7,43.4,29.91,SSE,158,2.0,10.7,73,0.00,,,0.08,VWS V14.01,2013-03-05 15:55:00,
2013-03-05 11:00:00,51.9,43.5,29.91,SSW,202,2.5,10.7,73,0.00,,,0.08,VWS V14.01,2013-03-05 16:00:00,
2013-03-05 11:05:00,52.1,43.7,29.91,SE,135,0.9,5.8,73,0.00,,,0.08,VWS V14.01,2013-03-05 16:05:00,
2013-03-05 11:10:00,52.3,43.2,29.91,ESE,112,2.5,5.8,71,0.00,,,0.08,VWS V14.01,2013-03-05 16:10:00,
2013-03-05 11:15:00,52.5,43.3,29.91,WNW,292,5.4,10.7,71,0.00,,,0.08,VWS V14.01,2013-03-05 16:15:00,
2013-03-05 11:20:00,52.8,42.9,29.91,East,90,4.9,8.7,69,0.00,,,0.08,VWS V14.01,2013-03-05 16:20:00,
2013-03-05 11:25:00,53.9,43.6,29.88,ESE,112,5.8,10.5,68,0.00,,,0.08,VWS V14.01,2013-03-05 16:25:00,
2013-03-05 11:30:00,54.4,42.9,29.88,SSE,158,3.6,10.5,65,0.00,,,0.08,VWS V14.01,2013-03-05 16:30:00,
2013-03-05 11:35:00,54.8,42.9,29.88,WSW,248,6.5,6.5,64,0.00,,,0.08,VWS V14.01,2013-03-05 16:35:00,
2013-03-05 11:40:00,54.8,42.9,29.88,SSW,202,0.9,6.7,64,0.00,,,0.08,VWS V14.01,2013-03-05 16:40:00,
2013-03-05 11:45:00,54.8,42.9,29.88,South,180,4.3,6.7,64,0.00,,,0.08,VWS V14.01,2013-03-05 16:45:00,
2013-03-05 11:50:00,54.4,42.5,29.88,SW,225,5.4,10.1,64,0.00,,,0.08,VWS V14.01,2013-03-05 16:50:00,
2013-03-05 11:55:00,54.6,42.7,29.88,SW,225,1.6,10.1,64,0.00,,,0.08,VWS V14.01,2013-03-05 16:55:00,
2013-03-05 12:00:00,54.8,42.9,29.88,SE,135,2.9,10.1,64,0.00,,,0.08,VWS V14.01,2013-03-05 17:00:00,
2013-03-05 12:05:00,55.2,43.2,29.88,East,90,1.1,2.5,64,0.00,,,0.08,VWS V14.01,2013-03-05 17:05:00,
2013-03-05 12:10:00,55.2,42.8,29.88,NW,315,1.3,2.5,63,0.00,,,0.08,VWS V14.01,2013-03-05 17:10:00,
2013-03-05 12:15:00,55.2,42.8,29.88,NE,45,2.0,6.3,63,0.00,,,0.08,VWS V14.01,2013-03-05 17:15:00,
2013-03-05 12:20:00,55.0,42.6,29.88,SE,135,3.1,4.5,63,0.00,,,0.08,VWS V14.01,2013-03-05 17:20:00,
2013-03-05 12:25:00,54.8,42.5,29.85,North,0,2.7,4.5,63,0.00,,,0.08,VWS V14.01,2013-03-05 17:25:00,
2013-03-05 12:30:00,54.8,42.5,29.85,SSE,158,5.8,5.8,63,0.00,,,0.08,VWS V14.01,2013-03-05 17:30:00,
2013-03-05 12:35:00,54.8,42.5,29.85,SSW,202,1.3,4.3,63,0.00,,,0.08,VWS V14.01,2013-03-05 17:35:00,
2013-03-05 12:40:00,54.6,42.3,29.85,NE,45,2.0,9.4,63,0.00,,,0.08,VWS V14.01,2013-03-05 17:40:00,
2013-03-05 12:45:00,54.6,42.3,29.85,WSW,248,3.8,9.4,63,0.00,,,0.08,VWS V14.01,2013-03-05 17:45:00,
2013-03-05 12:50:00,54.6,42.3,29.85,WNW,292,3.8,6.5,63,0.00,,,0.08,VWS V14.01,2013-03-05 17:50:00,
2013-03-05 12:55:00,54.8,42.5,29.85,SE,135,2.7,6.5,63,0.00,,,0.08,VWS V14.01,2013-03-05 17:55:00,
2013-03-05 13:00:00,54.8,42.9,29.85,ESE,112,2.7,10.1,64,0.00,,,0.08,VWS V14.01,2013-03-05 18:00:00,
2013-03-05 13:05:00,54.8,42.5,29.85,NNW,338,2.7,3.4,63,0.00,,,0.08,VWS V14.01,2013-03-05 18:05:00,
2013-03-05 13:10:00,55.0,42.6,29.85,SE,135,5.4,5.8,63,0.00,,,0.08,VWS V14.01,2013-03-05 18:10:00,
2013-03-05 13:15:00,54.8,42.9,29.85,South,180,2.2,5.8,64,0.00,,,0.08,VWS V14.01,2013-03-05 18:15:00,
2013-03-05 13:20:00,54.8,42.9,29.85,South,180,6.0,9.6,64,0.00,,,0.08,VWS V14.01,2013-03-05 18:20:00,
2013-03-05 13:25:00,55.0,43.0,29.85,East,90,4.9,9.6,64,0.00,,,0.08,VWS V14.01,2013-03-05 18:25:00,
2013-03-05 13:30:00,55.2,42.8,29.82,SE,135,8.7,17.7,63,0.00,,,0.08,VWS V14.01,2013-03-05 18:30:00,
2013-03-05 13:34:00,55.0,43.4,29.82,SSW,202,3.4,7.8,65,0.00,,,0.08,VWS V14.01,2013-03-05 18:34:00,
2013-03-05 13:39:00,54.8,43.3,29.82,South,180,4.7,10.1,65,0.00,,,0.08,VWS V14.01,2013-03-05 18:39:00,
2013-03-05 13:44:00,54.6,43.5,29.82,SSE,158,1.6,10.1,66,0.00,,,0.08,VWS V14.01,2013-03-05 18:44:00,
2013-03-05 13:45:00,55.5,44.0,29.74,ENE,68,3.8,6.9,65,0.00,,,0.08,VWS V14.01,2013-03-05 18:45:00,
2013-03-05 13:49:00,54.2,44.3,29.82,SE,135,8.7,8.7,69,0.00,,,0.08,VWS V14.01,2013-03-05 18:49:00,
2013-03-05 13:55:00,54.2,44.3,29.82,SE,135,8.5,10.3,69,0.00,,,0.08,VWS V14.01,2013-03-05 18:55:00,
2013-03-05 14:00:00,54.2,43.9,29.82,ESE,112,11.0,12.1,68,0.00,,,0.08,VWS V14.01,2013-03-05 19:00:00,
2013-03-05 14:05:00,54.6,43.9,29.82,SSE,158,10.1,11.0,67,0.00,,,0.08,VWS V14.01,2013-03-05 19:05:00,
2013-03-05 14:10:00,54.8,43.7,29.79,SSW,202,5.4,11.0,66,0.00,,,0.08,VWS V14.01,2013-03-05 19:10:00,
2013-03-05 14:14:00,55.0,44.2,29.79,SSE,158,2.5,11.0,67,0.00,,,0.08,VWS V14.01,2013-03-05 19:14:00,
2013-03-05 14:19:00,55.0,43.8,29.79,SSW,202,1.6,6.0,66,0.00,,,0.08,VWS V14.01,2013-03-05 19:19:00,
2013-03-05 14:24:00,55.2,43.6,29.76,ESE,112,4.3,7.4,65,0.00,,,0.08,VWS V14.01,2013-03-05 19:24:00,
2013-03-05 14:29:00,55.5,44.0,29.76,SSE,158,3.4,11.0,65,0.00,,,0.08,VWS V14.01,2013-03-05 19:29:00,
2013-03-05 14:30:00,55.2,44.0,29.74,WNW,292,2.7,12.1,66,0.00,,,0.08,VWS V14.01,2013-03-05 19:30:00,
2013-03-05 14:34:00,55.5,44.0,29.76,SSW,202,2.0,4.0,65,0.00,,,0.08,VWS V14.01,2013-03-05 19:34:00,
2013-03-05 14:39:00,55.5,44.0,29.76,SE,135,6.9,6.9,65,0.00,,,0.08,VWS V14.01,2013-03-05 19:39:00,
2013-03-05 14:44:00,55.5,44.0,29.74,SSE,158,4.0,6.9,65,0.00,,,0.08,VWS V14.01,2013-03-05 19:44:00,
2013-03-05 14:45:00,54.8,45.2,29.71,ESE,112,2.9,7.2,70,0.00,,,0.08,VWS V14.01,2013-03-05 19:45:00,
2013-03-05 14:49:00,55.2,43.6,29.74,SSE,158,4.9,10.3,65,0.00,,,0.08,VWS V14.01,2013-03-05 19:49:00,
2013-03-05 14:54:00,55.2,43.6,29.74,SSE,158,7.6,10.3,65,0.00,,,0.08,VWS V14.01,2013-03-05 19:54:00,
2013-03-05 14:59:00,55.2,44.0,29.74,South,180,5.8,10.3,66,0.00,,,0.08,VWS V14.01,2013-03-05 19:59:00,
2013-03-05 15:00:00,54.4,46.0,29.68,NNW,338,2.0,13.4,73,0.00,,,0.08,VWS V14.01,2013-03-05 20:00:00,
2013-03-05 15:04:00,55.2,44.0,29.74,SSE,158,8.1,8.1,66,0.00,,,0.08,VWS V14.01,2013-03-05 20:04:00,
2013-03-05 15:09:00,55.2,43.6,29.74,West,270,4.7,12.1,65,0.00,,,0.08,VWS V14.01,2013-03-05 20:09:00,
2013-03-05 15:14:00,55.3,43.8,29.74,ENE,68,2.9,12.1,65,0.00,,,0.08,VWS V14.01,2013-03-05 20:14:00,
2013-03-05 15:15:00,54.2,46.5,29.68,South,180,5.6,17.7,75,0.00,,,0.08,VWS V14.01,2013-03-05 20:15:00,
2013-03-05 15:19:00,55.2,44.0,29.74,WNW,292,2.9,12.1,66,0.00,,,0.08,VWS V14.01,2013-03-05 20:19:00,
2013-03-05 15:24:00,55.2,43.6,29.74,SSW,202,3.4,12.1,65,0.00,,,0.08,VWS V14.01,2013-03-05 20:24:00,
2013-03-05 15:29:00,55.2,44.0,29.74,ENE,68,2.2,12.1,66,0.00,,,0.08,VWS V14.01,2013-03-05 20:29:00,
2013-03-05 15:30:00,53.7,48.0,29.68,SE,135,1.6,6.5,81,0.04,,,0.12,VWS V14.01,2013-03-05 20:30:00,
2013-03-05 15:34:00,55.0,44.6,29.74,NE,45,1.6,5.4,68,0.00,,,0.08,VWS V14.01,2013-03-05 20:34:00,
2013-03-05 15:39:00,54.8,44.8,29.71,East,90,2.7,7.2,69,0.00,,,0.08,VWS V14.01,2013-03-05 20:39:00,
2013-03-05 15:44:00,54.8,44.8,29.71,SE,135,4.0,7.2,69,0.00,,,0.08,VWS V14.01,2013-03-05 20:44:00,
2013-03-05 15:45:00,49.9,44.0,29.68,WNW,292,3.4,21.9,80,0.25,,,0.33,VWS V14.01,2013-03-05 20:45:00,
2013-03-05 15:49:00,54.8,44.8,29.71,SSE,158,13.4,13.4,69,0.00,,,0.08,VWS V14.01,2013-03-05 20:49:00,
2013-03-05 15:54:00,55.2,44.8,29.71,SSE,158,6.5,13.4,68,0.00,,,0.08,VWS V14.01,2013-03-05 20:54:00,
2013-03-05 15:59:00,54.6,45.8,29.68,SSE,158,4.0,13.4,72,0.00,,,0.08,VWS V14.01,2013-03-05 20:59:00,
2013-03-05 16:00:00,49.2,44.9,29.74,NNE,22,3.4,7.4,85,0.33,,,0.41,VWS V14.01,2013-03-05 21:00:00,
2013-03-05 16:04:00,54.4,46.7,29.68,NNW,338,3.6,17.7,75,0.00,,,0.08,VWS V14.01,2013-03-05 21:04:00,
2013-03-05 16:09:00,54.6,46.1,29.68,East,90,5.8,17.7,73,0.00,,,0.08,VWS V14.01,2013-03-05 21:09:00,
2013-03-05 16:14:00,54.1,47.4,29.68,SSE,158,6.0,17.7,78,0.00,,,0.08,VWS V14.01,2013-03-05 21:14:00,
2013-03-05 16:15:00,49.4,47.7,29.74,NW,315,2.5,4.9,94,0.37,,,0.45,VWS V14.01,2013-03-05 21:15:00,
2013-03-05 16:19:00,54.6,46.5,29.68,NNE,22,2.5,6.5,74,0.00,,,0.08,VWS V14.01,2013-03-05 21:19:00,
2013-03-05 16:24:00,54.1,47.7,29.68,NNE,22,2.2,6.5,79,0.04,,,0.12,VWS V14.01,2013-03-05 21:24:00,
2013-03-05 16:29:00,54.1,47.4,29.68,WSW,248,3.4,6.5,78,0.04,,,0.12,VWS V14.01,2013-03-05 21:29:00,
2013-03-05 16:30:00,49.9,48.0,29.71,North,0,4.0,12.1,93,0.37,,,0.45,VWS V14.01,2013-03-05 21:30:00,
2013-03-05 16:34:00,55.5,45.1,29.68,SSW,202,5.4,21.9,68,0.04,,,0.12,VWS V14.01,2013-03-05 21:34:00,
2013-03-05 16:39:00,54.2,46.9,29.68,NW,315,3.8,21.9,76,0.08,,,0.16,VWS V14.01,2013-03-05 21:39:00,
2013-03-05 16:44:00,51.7,45.1,29.68,WNW,292,6.3,21.9,78,0.16,,,0.24,VWS V14.01,2013-03-05 21:44:00,
2013-03-05 16:49:00,48.7,41.5,29.68,NW,315,5.8,7.4,76,0.33,,,0.41,VWS V14.01,2013-03-05 21:49:00,
2013-03-05 16:54:00,49.2,42.0,29.68,East,90,3.8,7.4,76,0.33,,,0.41,VWS V14.01,2013-03-05 21:54:00,
2013-03-05 16:59:00,49.2,44.3,29.74,WNW,292,4.3,7.4,83,0.33,,,0.41,VWS V14.01,2013-03-05 21:59:00,
2013-03-05 17:04:00,49.0,45.6,29.74,South,180,2.7,3.6,88,0.37,,,0.45,VWS V14.01,2013-03-05 22:04:00,
2013-03-05 17:09:00,49.2,46.7,29.74,North,0,4.9,4.9,91,0.37,,,0.45,VWS V14.01,2013-03-05 22:09:00,
2013-03-05 17:14:00,49.2,47.6,29.74,South,180,4.0,4.9,94,0.37,,,0.45,VWS V14.01,2013-03-05 22:14:00,
2013-03-05 17:15:00,49.6,48.8,29.74,SSW,202,0.0,4.0,97,0.33,,,0.45,VWS V14.01,2013-03-05 22:15:00,
2013-03-05 17:19:00,49.9,47.7,29.74,SSE,158,3.4,8.1,92,0.37,,,0.45,VWS V14.01,2013-03-05 22:19:00,
2013-03-05 17:24:00,50.1,47.6,29.74,East,90,2.7,12.1,91,0.37,,,0.45,VWS V14.01,2013-03-05 22:24:00,
2013-03-05 17:29:00,49.9,48.0,29.71,WNW,292,2.0,12.1,93,0.37,,,0.45,VWS V14.01,2013-03-05 22:29:00,
2013-03-05 17:30:00,49.4,49.1,29.74,WNW,292,2.7,3.4,99,0.00,,,0.45,VWS V14.01,2013-03-05 22:30:00,
2013-03-05 17:34:00,49.9,48.3,29.71,NNW,338,2.5,4.0,94,0.33,,,0.45,VWS V14.01,2013-03-05 22:34:00,
2013-03-05 17:39:00,50.1,48.7,29.71,WNW,292,0.9,4.0,95,0.33,,,0.45,VWS V14.01,2013-03-05 22:39:00,
2013-03-05 17:44:00,50.1,49.6,29.74,WNW,292,0.0,4.0,98,0.33,,,0.45,VWS V14.01,2013-03-05 22:44:00,
2013-03-05 17:45:00,50.1,42.2,29.74,NNW,338,2.7,6.0,74,0.00,,,0.45,VWS V14.01,2013-03-05 22:45:00,
2013-03-05 17:49:00,50.1,49.8,29.74,South,180,0.0,4.0,99,0.33,,,0.45,VWS V14.01,2013-03-05 22:49:00,
2013-03-05 17:54:00,50.1,50.1,29.74,SSW,202,0.0,4.0,100,0.33,,,0.45,VWS V14.01,2013-03-05 22:54:00,
2013-03-05 17:59:00,49.9,49.9,29.74,ENE,68,1.3,4.0,100,0.33,,,0.45,VWS V14.01,2013-03-05 22:59:00,
2013-03-05 18:00:00,49.6,38.3,29.74,NNW,338,1.6,9.6,65,0.00,,,0.45,VWS V14.01,2013-03-05 23:00:00,
2013-03-05 18:04:00,49.8,49.8,29.74,West,270,0.0,4.0,100,0.33,,,0.45,VWS V14.01,2013-03-05 23:04:00,
2013-03-05 18:09:00,49.6,48.5,29.74,SW,225,0.0,4.0,96,0.33,,,0.45,VWS V14.01,2013-03-05 23:09:00,
2013-03-05 18:14:00,49.6,48.8,29.74,SSW,202,0.0,4.0,97,0.33,,,0.45,VWS V14.01,2013-03-05 23:14:00,
2013-03-05 18:15:00,49.2,36.8,29.76,WNW,292,3.8,11.0,62,0.00,,,0.45,VWS V14.01,2013-03-05 23:15:00,
2013-03-05 18:19:00,49.6,48.8,29.74,SW,225,1.1,3.1,97,0.00,,,0.45,VWS V14.01,2013-03-05 23:19:00,
2013-03-05 18:24:00,49.6,48.8,29.74,NW,315,2.0,3.1,97,0.00,,,0.45,VWS V14.01,2013-03-05 23:24:00,
2013-03-05 18:29:00,49.4,49.1,29.74,NW,315,2.5,3.1,99,0.00,,,0.45,VWS V14.01,2013-03-05 23:29:00,
2013-03-05 18:30:00,47.6,34.8,29.80,West,270,6.5,9.8,61,0.00,,,0.45,VWS V14.01,2013-03-05 23:30:00,
2013-03-05 18:34:00,49.4,49.1,29.74,SSW,202,1.1,3.1,99,0.00,,,0.45,VWS V14.01,2013-03-05 23:34:00,
2013-03-05 18:39:00,49.8,46.3,29.74,WNW,292,3.8,4.7,88,0.00,,,0.45,VWS V14.01,2013-03-05 23:39:00,
2013-03-05 18:44:00,50.3,42.7,29.74,WNW,292,2.7,6.0,75,0.00,,,0.45,VWS V14.01,2013-03-05 23:44:00,
2013-03-05 18:45:00,45.8,31.0,29.82,NNW,338,5.8,12.3,56,0.00,,,0.45,VWS V14.01,2013-03-05 23:45:00,
2013-03-05 18:49:00,49.9,41.3,29.74,NNW,338,2.5,4.9,72,0.00,,,0.45,VWS V14.01,2013-03-05 23:49:00,
2013-03-05 18:54:00,50.1,38.4,29.74,West,270,7.6,7.6,64,0.00,,,0.45,VWS V14.01,2013-03-05 23:54:00,
2013-03-05 18:59:00,49.9,38.7,29.74,WNW,292,2.7,9.6,65,0.00,,,0.45,VWS V14.01,2013-03-05 23:59:00,
2013-03-05 19:00:00,45.2,30.1,29.80,NNW,338,4.0,10.7,55,0.00,,,0.45,VWS V14.01,2013-03-06 00:00:00,
2013-03-05 19:04:00,49.6,37.5,29.74,WNW,292,5.6,11.0,63,0.00,,,0.45,VWS V14.01,2013-03-06 00:04:00,
2013-03-05 19:09:00,49.6,37.5,29.74,SSE,158,2.5,11.0,63,0.00,,,0.45,VWS V14.01,2013-03-06 00:09:00,
2013-03-05 19:14:00,49.2,36.8,29.76,WNW,292,2.7,11.0,62,0.00,,,0.45,VWS V14.01,2013-03-06 00:14:00,
2013-03-05 19:15:00,43.6,29.4,29.76,South,180,3.8,8.5,57,0.00,,,0.45,VWS V14.01,2013-03-06 00:15:00,
2013-03-05 19:19:00,48.8,37.6,29.76,WNW,292,3.6,6.3,65,0.00,,,0.45,VWS V14.01,2013-03-06 00:19:00,
2013-03-05 19:24:00,48.3,35.9,29.76,WNW,292,6.0,8.7,62,0.00,,,0.45,VWS V14.01,2013-03-06 00:24:00,
2013-03-05 19:29:00,47.6,34.8,29.79,WNW,292,6.0,9.6,61,0.00,,,0.45,VWS V14.01,2013-03-06 00:29:00,
2013-03-05 19:30:00,42.7,28.6,29.80,NW,315,3.8,10.5,57,0.00,,,0.45,VWS V14.01,2013-03-06 00:30:00,
2013-03-05 19:34:00,47.0,32.2,29.79,WNW,292,10.3,10.7,56,0.00,,,0.45,VWS V14.01,2013-03-06 00:34:00,
2013-03-05 19:39:00,46.5,31.7,29.79,WNW,292,8.7,12.3,56,0.00,,,0.45,VWS V14.01,2013-03-06 00:39:00,
2013-03-05 19:44:00,46.3,31.5,29.82,WNW,292,4.3,12.3,56,0.00,,,0.45,VWS V14.01,2013-03-06 00:44:00,
2013-03-05 19:45:00,41.1,29.9,29.80,NNE,22,3.1,10.1,64,0.00,,,0.45,VWS V14.01,2013-03-06 00:45:00,
2013-03-05 19:49:00,45.6,29.9,29.82,West,270,6.3,8.1,54,0.00,,,0.45,VWS V14.01,2013-03-06 00:49:00,
2013-03-05 19:54:00,45.4,30.2,29.82,NW,315,2.5,8.1,55,0.00,,,0.45,VWS V14.01,2013-03-06 00:54:00,
2013-03-05 19:59:00,45.2,30.1,29.79,WNW,292,7.8,10.7,55,0.00,,,0.45,VWS V14.01,2013-03-06 00:59:00,
2013-03-05 20:00:00,37.7,30.2,29.82,WNW,292,9.8,12.5,74,0.00,,,0.45,VWS V14.01,2013-03-06 01:00:00,
2013-03-05 20:04:00,44.5,29.8,29.79,West,270,5.4,7.2,56,0.00,,,0.45,VWS V14.01,2013-03-06 01:04:00,
2013-03-05 20:09:00,44.3,29.7,29.79,NNE,22,6.0,8.5,56,0.00,,,0.45,VWS V14.01,2013-03-06 01:09:00,
2013-03-05 20:14:00,43.8,29.6,29.76,WNW,292,4.7,8.5,57,0.00,,,0.45,VWS V14.01,2013-03-06 01:14:00,
2013-03-05 20:15:00,36.2,28.1,29.88,NW,315,5.4,9.8,72,0.00,,,0.45,VWS V14.01,2013-03-06 01:15:00,
2013-03-05 20:19:00,43.3,29.5,29.76,WSW,248,3.8,9.0,58,0.00,,,0.45,VWS V14.01,2013-03-06 01:19:00,
2013-03-05 20:24:00,43.1,29.3,29.76,NW,315,2.2,9.0,58,0.00,,,0.45,VWS V14.01,2013-03-06 01:24:00,
2013-03-05 20:29:00,42.7,28.6,29.79,WSW,248,8.5,10.5,57,0.00,,,0.45,VWS V14.01,2013-03-06 01:29:00,
2013-03-05 20:30:00,35.9,25.7,29.85,WNW,292,5.6,12.1,66,0.00,,,0.45,VWS V14.01,2013-03-06 01:30:00,
2013-03-05 20:34:00,42.0,28.7,29.79,West,270,4.0,10.1,59,0.00,,,0.45,VWS V14.01,2013-03-06 01:34:00,
2013-03-05 20:39:00,41.5,29.8,29.79,WNW,292,3.8,10.1,63,0.00,,,0.45,VWS V14.01,2013-03-06 01:39:00,
2013-03-05 20:44:00,41.1,29.9,29.79,NNE,22,3.1,10.1,64,0.00,,,0.45,VWS V14.01,2013-03-06 01:44:00,
2013-03-05 20:45:00,35.0,25.9,29.82,NNE,22,6.0,10.1,69,0.00,,,0.45,VWS V14.01,2013-03-06 01:45:00,
2013-03-05 20:49:00,39.8,30.2,29.79,SE,135,4.3,12.5,68,0.00,,,0.45,VWS V14.01,2013-03-06 01:49:00,
2013-03-05 20:54:00,39.1,30.9,29.82,NNW,338,5.8,12.5,72,0.00,,,0.45,VWS V14.01,2013-03-06 01:54:00,
2013-03-05 21:00:00,37.9,30.0,29.82,NNW,338,6.3,12.5,73,0.00,,,0.45,VWS V14.01,2013-03-06 02:00:00,
2013-03-05 21:05:00,37.2,30.6,29.82,WNW,292,8.7,9.8,77,0.00,,,0.45,VWS V14.01,2013-03-06 02:05:00,
2013-03-05 21:10:00,37.2,29.0,29.82,NW,315,2.0,9.8,72,0.00,,,0.45,VWS V14.01,2013-03-06 02:10:00,
2013-03-05 21:15:00,36.4,28.6,29.88,WNW,292,5.6,9.8,73,0.00,,,0.45,VWS V14.01,2013-03-06 02:15:00,
2013-03-05 21:20:00,36.1,27.2,29.88,West,270,10.1,10.1,70,0.00,,,0.45,VWS V14.01,2013-03-06 02:20:00,
2013-03-05 21:25:00,35.9,26.4,29.85,WNW,292,8.5,10.1,68,0.00,,,0.45,VWS V14.01,2013-03-06 02:25:00,
2013-03-05 21:30:00,35.9,25.7,29.85,WNW,292,4.9,12.1,66,0.00,,,0.45,VWS V14.01,2013-03-06 02:30:00,
2013-03-05 21:35:00,35.7,25.9,29.85,NNW,338,6.3,6.5,67,0.00,,,0.45,VWS V14.01,2013-03-06 02:35:00,
2013-03-05 21:40:00,35.3,25.9,29.82,WNW,292,8.5,10.1,68,0.00,,,0.45,VWS V14.01,2013-03-06 02:40:00,
2013-03-05 21:45:00,35.0,25.9,29.82,NW,315,7.4,10.1,69,0.00,,,0.45,VWS V14.01,2013-03-06 02:45:00,
2013-03-05 21:50:00,34.8,25.3,29.82,WNW,292,4.0,10.5,68,0.00,,,0.45,VWS V14.01,2013-03-06 02:50:00,
2013-03-05 21:55:00,35.0,24.8,29.85,WNW,292,4.3,10.5,66,0.00,,,0.45,VWS V14.01,2013-03-06 02:55:00,
2013-03-05 22:00:00,34.8,24.6,29.85,NW,315,4.9,10.5,66,0.00,,,0.45,VWS V14.01,2013-03-06 03:00:00,
2013-03-05 22:05:00,34.8,24.3,29.85,NW,315,3.6,7.8,65,0.00,,,0.45,VWS V14.01,2013-03-06 03:05:00,
2013-03-05 22:10:00,34.8,23.9,29.88,NW,315,4.9,9.8,64,0.00,,,0.45,VWS V14.01,2013-03-06 03:10:00,
2013-03-05 22:15:00,34.6,23.0,29.88,NNE,22,13.2,13.2,62,0.00,,,0.45,VWS V14.01,2013-03-06 03:15:00,
2013-03-05 22:20:00,34.5,23.2,29.88,NW,315,6.3,8.7,63,0.00,,,0.45,VWS V14.01,2013-03-06 03:20:00,
2013-03-05 22:25:00,34.5,22.8,29.82,WNW,292,5.4,13.2,62,0.00,,,0.45,VWS V14.01,2013-03-06 03:25:00,
2013-03-05 22:30:00,34.1,22.8,29.82,NNW,338,7.8,13.2,63,0.00,,,0.45,VWS V14.01,2013-03-06 03:30:00,
2013-03-05 22:35:00,33.9,22.7,29.82,West,270,6.9,7.8,63,0.00,,,0.45,VWS V14.01,2013-03-06 03:35:00,
2013-03-05 22:40:00,33.7,22.1,29.85,WNW,292,5.6,7.8,62,0.00,,,0.45,VWS V14.01,2013-03-06 03:40:00,
2013-03-05 22:45:00,33.7,22.9,29.85,WNW,292,5.6,7.8,64,0.00,,,0.45,VWS V14.01,2013-03-06 03:45:00,
2013-03-05 22:50:00,33.5,22.3,29.85,West,270,4.0,5.6,63,0.00,,,0.45,VWS V14.01,2013-03-06 03:50:00,
2013-03-05 22:55:00,33.0,22.5,29.85,WNW,292,5.8,6.5,65,0.00,,,0.00,VWS V14.01,2013-03-06 03:55:00,
2013-03-05 23:00:00,33.0,22.2,29.85,West,270,7.8,7.8,64,0.00,,,0.45,VWS V14.01,2013-03-06 04:00:00,
2013-03-05 23:05:00,32.8,22.4,29.85,WSW,248,6.0,7.8,65,0.00,,,0.45,VWS V14.01,2013-03-06 04:05:00,
2013-03-05 23:10:00,33.0,21.0,29.85,WNW,292,7.4,10.3,61,0.00,,,0.45,VWS V14.01,2013-03-06 04:10:00,
2013-03-05 23:15:00,32.8,20.9,29.85,WNW,292,3.8,10.3,61,0.00,,,0.45,VWS V14.01,2013-03-06 04:15:00,
2013-03-05 23:20:00,32.8,20.9,29.85,West,270,7.4,7.4,61,0.00,,,0.45,VWS V14.01,2013-03-06 04:20:00,
2013-03-05 23:25:00,32.8,20.9,29.85,West,270,3.1,7.4,61,0.00,,,0.45,VWS V14.01,2013-03-06 04:25:00,
2013-03-05 23:30:00,32.8,20.1,29.85,WNW,292,7.2,7.4,59,0.00,,,0.45,VWS V14.01,2013-03-06 04:30:00,
2013-03-05 23:35:00,33.0,19.9,29.85,NNW,338,4.7,7.2,58,0.00,,,0.45,VWS V14.01,2013-03-06 04:35:00,
2013-03-05 23:40:00,32.8,20.1,29.82,NNW,338,5.6,8.7,59,0.00,,,0.45,VWS V14.01,2013-03-06 04:40:00,
2013-03-05 23:45:00,32.8,20.1,29.82,NNW,338,4.9,8.7,59,0.00,,,0.45,VWS V14.01,2013-03-06 04:45:00,
2013-03-05 23:50:00,32.7,19.9,29.82,WSW,248,4.3,5.6,59,0.00,,,0.45,VWS V14.01,2013-03-06 04:50:00,
2013-03-05 23:55:00,32.7,19.9,29.82,WNW,292,6.0,8.1,59,0.00,,,0.45,VWS V14.01,2013-03-06 04:55:00,